sensor_id;sensor_type;location;lat;lon;timestamp;P1;durP1;ratioP1;P2;durP2;ratioP2
57247;SDS011;55809;46.618;10.764;2024-03-23T00:53:27;2.72;;;1.05;;
57247;SDS011;55809;46.618;10.764;2024-03-23T00:55:55;3.47;;;1.23;;
57247;SDS011;55809;46.618;10.764;2024-03-23T00:58:21;4.15;;;1.00;;
57247;SDS011;55809;46.618;10.764;2024-03-23T01:00:48;4.47;;;1.35;;
57247;SDS011;55809;46.618;10.764;2024-03-23T01:03:14;4.93;;;1.60;;
57247;SDS011;55809;46.618;10.764;2024-03-23T01:05:41;3.78;;;1.10;;
57247;SDS011;55809;46.618;10.764;2024-03-23T01:08:07;4.22;;;1.30;;
57247;SDS011;55809;46.618;10.764;2024-03-23T01:10:36;2.42;;;1.17;;
57247;SDS011;55809;46.618;10.764;2024-03-23T01:13:02;4.78;;;1.20;;
57247;SDS011;55809;46.618;10.764;2024-03-23T01:15:29;2.97;;;1.00;;
57247;SDS011;55809;46.618;10.764;2024-03-23T01:17:55;3.50;;;1.17;;
57247;SDS011;55809;46.618;10.764;2024-03-23T01:20:22;3.33;;;1.10;;
57247;SDS011;55809;46.618;10.764;2024-03-23T01:22:48;3.67;;;1.70;;
57247;SDS011;55809;46.618;10.764;2024-03-23T01:25:15;4.57;;;1.20;;
57247;SDS011;55809;46.618;10.764;2024-03-23T01:27:43;2.95;;;1.38;;
57247;SDS011;55809;46.618;10.764;2024-03-23T01:30:10;2.47;;;1.17;;
57247;SDS011;55809;46.618;10.764;2024-03-23T01:32:36;3.15;;;1.27;;
57247;SDS011;55809;46.618;10.764;2024-03-23T01:35:03;3.58;;;1.30;;
57247;SDS011;55809;46.618;10.764;2024-03-23T01:37:30;2.83;;;1.23;;
57247;SDS011;55809;46.618;10.764;2024-03-23T01:39:57;5.70;;;1.27;;
57247;SDS011;55809;46.618;10.764;2024-03-23T01:42:23;2.15;;;1.00;;
57247;SDS011;55809;46.618;10.764;2024-03-23T01:44:52;3.60;;;1.20;;
57247;SDS011;55809;46.618;10.764;2024-03-23T01:47:18;2.95;;;1.38;;
57247;SDS011;55809;46.618;10.764;2024-03-23T01:49:45;3.22;;;1.10;;
57247;SDS011;55809;46.618;10.764;2024-03-23T01:52:11;3.80;;;1.20;;
57247;SDS011;55809;46.618;10.764;2024-03-23T01:54:38;2.90;;;1.10;;
57247;SDS011;55809;46.618;10.764;2024-03-23T01:57:06;5.45;;;1.20;;
57247;SDS011;55809;46.618;10.764;2024-03-23T01:59:33;2.97;;;0.93;;
57247;SDS011;55809;46.618;10.764;2024-03-23T02:02:00;2.20;;;0.95;;
57247;SDS011;55809;46.618;10.764;2024-03-23T02:04:27;1.75;;;0.80;;
57247;SDS011;55809;46.618;10.764;2024-03-23T02:06:53;3.63;;;0.90;;
57247;SDS011;55809;46.618;10.764;2024-03-23T02:09:20;2.25;;;0.82;;
57247;SDS011;55809;46.618;10.764;2024-03-23T02:11:46;1.48;;;0.80;;
57247;SDS011;55809;46.618;10.764;2024-03-23T02:14:13;3.85;;;1.10;;
57247;SDS011;55809;46.618;10.764;2024-03-23T02:16:39;2.55;;;1.05;;
57247;SDS011;55809;46.618;10.764;2024-03-23T02:19:08;3.17;;;1.00;;
57247;SDS011;55809;46.618;10.764;2024-03-23T02:21:34;2.00;;;0.90;;
57247;SDS011;55809;46.618;10.764;2024-03-23T02:24:02;2.75;;;1.10;;
57247;SDS011;55809;46.618;10.764;2024-03-23T02:26:28;3.10;;;1.15;;
57247;SDS011;55809;46.618;10.764;2024-03-23T02:28:55;3.10;;;1.00;;
57247;SDS011;55809;46.618;10.764;2024-03-23T02:31:21;3.67;;;1.42;;
57247;SDS011;55809;46.618;10.764;2024-03-23T02:33:49;2.17;;;0.80;;
57247;SDS011;55809;46.618;10.764;2024-03-23T02:36:14;2.70;;;0.95;;
57247;SDS011;55809;46.618;10.764;2024-03-23T02:38:41;3.92;;;0.93;;
57247;SDS011;55809;46.618;10.764;2024-03-23T02:41:09;3.00;;;1.15;;
57247;SDS011;55809;46.618;10.764;2024-03-23T02:43:37;2.87;;;1.10;;
57247;SDS011;55809;46.618;10.764;2024-03-23T02:46:03;2.55;;;0.98;;
57247;SDS011;55809;46.618;10.764;2024-03-23T02:48:30;3.40;;;1.02;;
57247;SDS011;55809;46.618;10.764;2024-03-23T02:50:56;3.95;;;1.30;;
57247;SDS011;55809;46.618;10.764;2024-03-23T02:53:24;3.13;;;1.15;;
57247;SDS011;55809;46.618;10.764;2024-03-23T02:55:49;3.45;;;1.10;;
57247;SDS011;55809;46.618;10.764;2024-03-23T02:58:18;3.42;;;1.27;;
57247;SDS011;55809;46.618;10.764;2024-03-23T03:00:44;2.40;;;1.00;;
57247;SDS011;55809;46.618;10.764;2024-03-23T03:03:11;2.70;;;1.23;;
57247;SDS011;55809;46.618;10.764;2024-03-23T03:05:37;3.00;;;1.33;;
57247;SDS011;55809;46.618;10.764;2024-03-23T03:08:04;3.40;;;1.30;;
57247;SDS011;55809;46.618;10.764;2024-03-23T03:10:30;4.30;;;1.10;;
57247;SDS011;55809;46.618;10.764;2024-03-23T03:13:00;7.53;;;1.48;;
57247;SDS011;55809;46.618;10.764;2024-03-23T03:15:28;4.35;;;1.20;;
57247;SDS011;55809;46.618;10.764;2024-03-23T03:17:55;2.47;;;1.20;;
57247;SDS011;55809;46.618;10.764;2024-03-23T03:20:21;3.10;;;1.08;;
57247;SDS011;55809;46.618;10.764;2024-03-23T03:22:49;3.00;;;1.20;;
57247;SDS011;55809;46.618;10.764;2024-03-23T03:25:15;2.83;;;1.20;;
57247;SDS011;55809;46.618;10.764;2024-03-23T03:27:42;3.92;;;1.25;;
57247;SDS011;55809;46.618;10.764;2024-03-23T03:30:08;2.38;;;1.08;;
57247;SDS011;55809;46.618;10.764;2024-03-23T03:32:37;2.88;;;1.08;;
57247;SDS011;55809;46.618;10.764;2024-03-23T03:35:04;2.25;;;1.08;;
57247;SDS011;55809;46.618;10.764;2024-03-23T03:37:31;3.03;;;1.13;;
57247;SDS011;55809;46.618;10.764;2024-03-23T03:39:57;2.30;;;1.17;;
57247;SDS011;55809;46.618;10.764;2024-03-23T03:42:24;2.85;;;1.13;;
57247;SDS011;55809;46.618;10.764;2024-03-23T03:44:50;3.25;;;1.45;;
57247;SDS011;55809;46.618;10.764;2024-03-23T03:47:19;3.25;;;1.00;;
57247;SDS011;55809;46.618;10.764;2024-03-23T03:49:47;4.30;;;1.20;;
57247;SDS011;55809;46.618;10.764;2024-03-23T03:52:14;3.38;;;1.70;;
57247;SDS011;55809;46.618;10.764;2024-03-23T03:54:39;2.33;;;1.00;;
57247;SDS011;55809;46.618;10.764;2024-03-23T03:57:07;2.63;;;1.20;;
57247;SDS011;55809;46.618;10.764;2024-03-23T03:59:33;2.38;;;0.90;;
57247;SDS011;55809;46.618;10.764;2024-03-23T04:02:00;3.92;;;1.20;;
57247;SDS011;55809;46.618;10.764;2024-03-23T04:04:26;3.78;;;1.30;;
57247;SDS011;55809;46.618;10.764;2024-03-23T04:06:59;2.42;;;1.13;;
57247;SDS011;55809;46.618;10.764;2024-03-23T04:09:25;2.88;;;0.93;;
57247;SDS011;55809;46.618;10.764;2024-03-23T04:11:52;5.10;;;1.45;;
57247;SDS011;55809;46.618;10.764;2024-03-23T04:14:18;4.13;;;1.30;;
57247;SDS011;55809;46.618;10.764;2024-03-23T04:16:45;3.13;;;1.30;;
57247;SDS011;55809;46.618;10.764;2024-03-23T04:19:11;2.63;;;1.00;;
57247;SDS011;55809;46.618;10.764;2024-03-23T04:21:38;2.92;;;1.10;;
57247;SDS011;55809;46.618;10.764;2024-03-23T04:27:27;3.50;;;1.10;;
57247;SDS011;55809;46.618;10.764;2024-03-23T04:29:54;4.15;;;1.02;;
57247;SDS011;55809;46.618;10.764;2024-03-23T04:32:20;2.25;;;0.90;;
57247;SDS011;55809;46.618;10.764;2024-03-23T04:34:47;2.33;;;1.38;;
57247;SDS011;55809;46.618;10.764;2024-03-23T04:37:13;3.33;;;1.30;;
57247;SDS011;55809;46.618;10.764;2024-03-23T04:39:41;3.13;;;1.33;;
57247;SDS011;55809;46.618;10.764;2024-03-23T04:42:08;3.20;;;1.20;;
57247;SDS011;55809;46.618;10.764;2024-03-23T04:44:37;2.55;;;1.20;;
57247;SDS011;55809;46.618;10.764;2024-03-23T04:47:04;3.53;;;1.15;;
57247;SDS011;55809;46.618;10.764;2024-03-23T04:49:31;3.72;;;0.90;;
57247;SDS011;55809;46.618;10.764;2024-03-23T04:51:57;2.92;;;1.20;;
57247;SDS011;55809;46.618;10.764;2024-03-23T04:54:25;2.35;;;1.17;;
57247;SDS011;55809;46.618;10.764;2024-03-23T04:56:54;2.10;;;1.00;;
57247;SDS011;55809;46.618;10.764;2024-03-23T04:59:20;6.00;;;1.13;;
57247;SDS011;55809;46.618;10.764;2024-03-23T05:01:51;3.20;;;1.27;;
57247;SDS011;55809;46.618;10.764;2024-03-23T05:04:18;3.53;;;1.25;;
57247;SDS011;55809;46.618;10.764;2024-03-23T05:06:44;5.63;;;1.20;;
57247;SDS011;55809;46.618;10.764;2024-03-23T05:09:11;3.88;;;1.10;;
57247;SDS011;55809;46.618;10.764;2024-03-23T05:11:37;3.22;;;1.17;;
57247;SDS011;55809;46.618;10.764;2024-03-23T05:14:04;3.35;;;1.30;;
57247;SDS011;55809;46.618;10.764;2024-03-23T05:16:30;4.25;;;1.40;;
57247;SDS011;55809;46.618;10.764;2024-03-23T05:18:58;4.68;;;1.35;;
57247;SDS011;55809;46.618;10.764;2024-03-23T05:21:24;4.65;;;1.40;;
57247;SDS011;55809;46.618;10.764;2024-03-23T05:23:51;3.53;;;1.20;;
57247;SDS011;55809;46.618;10.764;2024-03-23T05:26:19;4.53;;;1.55;;
57247;SDS011;55809;46.618;10.764;2024-03-23T05:28:46;3.17;;;1.20;;
57247;SDS011;55809;46.618;10.764;2024-03-23T05:31:12;3.75;;;1.30;;
57247;SDS011;55809;46.618;10.764;2024-03-23T05:33:48;3.78;;;1.42;;
57247;SDS011;55809;46.618;10.764;2024-03-23T05:36:17;2.35;;;1.10;;
57247;SDS011;55809;46.618;10.764;2024-03-23T05:38:44;2.63;;;1.10;;
57247;SDS011;55809;46.618;10.764;2024-03-23T05:41:10;3.63;;;1.40;;
57247;SDS011;55809;46.618;10.764;2024-03-23T05:43:37;3.35;;;1.23;;
57247;SDS011;55809;46.618;10.764;2024-03-23T05:46:03;5.63;;;1.60;;
57247;SDS011;55809;46.618;10.764;2024-03-23T05:48:30;2.90;;;1.30;;
57247;SDS011;55809;46.618;10.764;2024-03-23T05:50:57;5.28;;;1.40;;
57247;SDS011;55809;46.618;10.764;2024-03-23T05:53:25;3.65;;;1.35;;
57247;SDS011;55809;46.618;10.764;2024-03-23T05:55:51;3.92;;;1.20;;
57247;SDS011;55809;46.618;10.764;2024-03-23T05:58:26;4.07;;;1.70;;
57247;SDS011;55809;46.618;10.764;2024-03-23T06:00:56;4.65;;;1.65;;
57247;SDS011;55809;46.618;10.764;2024-03-23T06:03:24;3.15;;;1.38;;
57247;SDS011;55809;46.618;10.764;2024-03-23T06:05:51;3.53;;;1.35;;
57247;SDS011;55809;46.618;10.764;2024-03-23T06:08:18;4.10;;;1.52;;
57247;SDS011;55809;46.618;10.764;2024-03-23T06:10:47;4.25;;;1.42;;
57247;SDS011;55809;46.618;10.764;2024-03-23T06:13:13;4.90;;;1.40;;
57247;SDS011;55809;46.618;10.764;2024-03-23T06:15:40;3.60;;;1.30;;
57247;SDS011;55809;46.618;10.764;2024-03-23T06:18:06;4.25;;;1.45;;
57247;SDS011;55809;46.618;10.764;2024-03-23T06:20:34;4.78;;;1.75;;
57247;SDS011;55809;46.618;10.764;2024-03-23T06:23:00;4.18;;;1.73;;
57247;SDS011;55809;46.618;10.764;2024-03-23T06:25:27;6.35;;;1.92;;
57247;SDS011;55809;46.618;10.764;2024-03-23T06:27:55;4.40;;;1.80;;
57247;SDS011;55809;46.618;10.764;2024-03-23T06:30:23;3.60;;;1.85;;
57247;SDS011;55809;46.618;10.764;2024-03-23T06:32:49;6.30;;;2.13;;
57247;SDS011;55809;46.618;10.764;2024-03-23T06:35:16;4.40;;;1.70;;
57247;SDS011;55809;46.618;10.764;2024-03-23T06:37:42;3.78;;;1.48;;
57247;SDS011;55809;46.618;10.764;2024-03-23T06:40:09;3.22;;;1.40;;
57247;SDS011;55809;46.618;10.764;2024-03-23T06:42:35;4.57;;;1.80;;
57247;SDS011;55809;46.618;10.764;2024-03-23T06:45:05;3.63;;;1.50;;
57247;SDS011;55809;46.618;10.764;2024-03-23T06:47:31;4.32;;;1.40;;
57247;SDS011;55809;46.618;10.764;2024-03-23T06:49:59;3.38;;;1.40;;
57247;SDS011;55809;46.618;10.764;2024-03-23T06:52:27;3.97;;;1.73;;
57247;SDS011;55809;46.618;10.764;2024-03-23T06:54:54;3.42;;;1.33;;
57247;SDS011;55809;46.618;10.764;2024-03-23T06:57:20;3.17;;;1.17;;
57247;SDS011;55809;46.618;10.764;2024-03-23T06:59:47;2.50;;;1.02;;
57247;SDS011;55809;46.618;10.764;2024-03-23T07:02:14;4.10;;;1.10;;
57247;SDS011;55809;46.618;10.764;2024-03-23T07:04:43;3.13;;;1.17;;
57247;SDS011;55809;46.618;10.764;2024-03-23T07:07:12;2.10;;;1.15;;
57247;SDS011;55809;46.618;10.764;2024-03-23T07:09:39;4.43;;;1.33;;
57247;SDS011;55809;46.618;10.764;2024-03-23T07:12:08;3.60;;;1.20;;
57247;SDS011;55809;46.618;10.764;2024-03-23T07:14:38;2.88;;;1.13;;
57247;SDS011;55809;46.618;10.764;2024-03-23T07:17:04;2.95;;;1.50;;
57247;SDS011;55809;46.618;10.764;2024-03-23T07:19:33;6.72;;;2.03;;
57247;SDS011;55809;46.618;10.764;2024-03-23T07:21:59;4.63;;;2.22;;
57247;SDS011;55809;46.618;10.764;2024-03-23T07:24:26;5.38;;;1.85;;
57247;SDS011;55809;46.618;10.764;2024-03-23T07:26:56;3.90;;;1.40;;
57247;SDS011;55809;46.618;10.764;2024-03-23T07:29:23;4.47;;;1.80;;
57247;SDS011;55809;46.618;10.764;2024-03-23T07:31:49;3.00;;;1.30;;
57247;SDS011;55809;46.618;10.764;2024-03-23T07:34:16;6.35;;;1.35;;
57247;SDS011;55809;46.618;10.764;2024-03-23T07:36:44;3.22;;;1.30;;
57247;SDS011;55809;46.618;10.764;2024-03-23T07:39:11;4.30;;;1.73;;
57247;SDS011;55809;46.618;10.764;2024-03-23T07:41:38;3.88;;;1.50;;
57247;SDS011;55809;46.618;10.764;2024-03-23T07:44:04;3.35;;;1.33;;
57247;SDS011;55809;46.618;10.764;2024-03-23T07:46:31;4.10;;;1.50;;
57247;SDS011;55809;46.618;10.764;2024-03-23T07:48:57;5.05;;;1.90;;
57247;SDS011;55809;46.618;10.764;2024-03-23T07:51:24;3.90;;;1.50;;
57247;SDS011;55809;46.618;10.764;2024-03-23T07:53:51;3.35;;;1.38;;
57247;SDS011;55809;46.618;10.764;2024-03-23T07:56:19;3.70;;;1.50;;
57247;SDS011;55809;46.618;10.764;2024-03-23T07:58:45;3.13;;;1.35;;
57247;SDS011;55809;46.618;10.764;2024-03-23T08:01:15;5.53;;;1.70;;
57247;SDS011;55809;46.618;10.764;2024-03-23T08:03:43;5.38;;;1.70;;
57247;SDS011;55809;46.618;10.764;2024-03-23T08:06:11;3.85;;;1.65;;
57247;SDS011;55809;46.618;10.764;2024-03-23T08:08:38;3.80;;;1.58;;
57247;SDS011;55809;46.618;10.764;2024-03-23T08:11:07;4.20;;;1.63;;
57247;SDS011;55809;46.618;10.764;2024-03-23T08:13:34;4.22;;;1.80;;
57247;SDS011;55809;46.618;10.764;2024-03-23T08:16:02;4.65;;;1.80;;
57247;SDS011;55809;46.618;10.764;2024-03-23T08:18:30;4.70;;;2.00;;
57247;SDS011;55809;46.618;10.764;2024-03-23T08:20:57;4.13;;;1.65;;
57247;SDS011;55809;46.618;10.764;2024-03-23T08:23:24;4.43;;;1.45;;
57247;SDS011;55809;46.618;10.764;2024-03-23T08:25:51;4.28;;;1.70;;
57247;SDS011;55809;46.618;10.764;2024-03-23T08:28:19;5.07;;;1.60;;
57247;SDS011;55809;46.618;10.764;2024-03-23T08:30:46;3.13;;;1.30;;
57247;SDS011;55809;46.618;10.764;2024-03-23T08:33:12;5.10;;;1.50;;
57247;SDS011;55809;46.618;10.764;2024-03-23T08:35:39;3.95;;;1.70;;
57247;SDS011;55809;46.618;10.764;2024-03-23T08:38:06;2.92;;;1.27;;
57247;SDS011;55809;46.618;10.764;2024-03-23T08:40:32;3.55;;;1.40;;
57247;SDS011;55809;46.618;10.764;2024-03-23T08:42:59;3.17;;;1.23;;
57247;SDS011;55809;46.618;10.764;2024-03-23T08:45:26;4.00;;;1.60;;
57247;SDS011;55809;46.618;10.764;2024-03-23T08:47:53;3.95;;;1.40;;
57247;SDS011;55809;46.618;10.764;2024-03-23T08:50:19;4.20;;;1.50;;
57247;SDS011;55809;46.618;10.764;2024-03-23T08:52:47;3.20;;;1.60;;
57247;SDS011;55809;46.618;10.764;2024-03-23T08:55:13;4.80;;;1.95;;
57247;SDS011;55809;46.618;10.764;2024-03-23T08:57:40;5.32;;;1.80;;
57247;SDS011;55809;46.618;10.764;2024-03-23T09:00:06;4.13;;;1.75;;
57247;SDS011;55809;46.618;10.764;2024-03-23T09:02:35;5.15;;;1.90;;
57247;SDS011;55809;46.618;10.764;2024-03-23T09:05:01;5.72;;;2.17;;
57247;SDS011;55809;46.618;10.764;2024-03-23T09:07:29;5.90;;;1.98;;
57247;SDS011;55809;46.618;10.764;2024-03-23T09:09:56;5.88;;;2.05;;
57247;SDS011;55809;46.618;10.764;2024-03-23T09:12:23;5.63;;;2.40;;
57247;SDS011;55809;46.618;10.764;2024-03-23T09:14:49;8.35;;;2.10;;
57247;SDS011;55809;46.618;10.764;2024-03-23T09:17:16;5.38;;;2.65;;
57247;SDS011;55809;46.618;10.764;2024-03-23T09:19:44;4.93;;;2.30;;
57247;SDS011;55809;46.618;10.764;2024-03-23T09:22:11;5.88;;;2.47;;
57247;SDS011;55809;46.618;10.764;2024-03-23T09:24:38;6.90;;;2.70;;
57247;SDS011;55809;46.618;10.764;2024-03-23T09:27:05;4.63;;;2.28;;
57247;SDS011;55809;46.618;10.764;2024-03-23T09:29:31;6.05;;;2.40;;
57247;SDS011;55809;46.618;10.764;2024-03-23T09:31:58;5.70;;;3.10;;
57247;SDS011;55809;46.618;10.764;2024-03-23T09:34:24;6.07;;;3.08;;
57247;SDS011;55809;46.618;10.764;2024-03-23T09:36:53;6.70;;;2.70;;
57247;SDS011;55809;46.618;10.764;2024-03-23T09:39:19;6.65;;;2.88;;
57247;SDS011;55809;46.618;10.764;2024-03-23T09:41:46;7.05;;;3.03;;
57247;SDS011;55809;46.618;10.764;2024-03-23T09:44:12;7.20;;;3.22;;
57247;SDS011;55809;46.618;10.764;2024-03-23T09:46:40;9.25;;;4.03;;
57247;SDS011;55809;46.618;10.764;2024-03-23T09:49:07;6.95;;;3.75;;
57247;SDS011;55809;46.618;10.764;2024-03-23T09:51:35;8.25;;;3.97;;
57247;SDS011;55809;46.618;10.764;2024-03-23T09:54:03;8.52;;;4.35;;
57247;SDS011;55809;46.618;10.764;2024-03-23T09:56:30;8.65;;;4.90;;
57247;SDS011;55809;46.618;10.764;2024-03-23T09:59:02;9.15;;;5.05;;
57247;SDS011;55809;46.618;10.764;2024-03-23T10:01:30;11.48;;;5.30;;
57247;SDS011;55809;46.618;10.764;2024-03-23T10:03:56;10.43;;;5.82;;
57247;SDS011;55809;46.618;10.764;2024-03-23T10:06:23;9.32;;;4.60;;
57247;SDS011;55809;46.618;10.764;2024-03-23T10:08:50;10.15;;;5.65;;
57247;SDS011;55809;46.618;10.764;2024-03-23T10:11:19;13.30;;;7.03;;
57247;SDS011;55809;46.618;10.764;2024-03-23T10:13:46;13.98;;;7.00;;
57247;SDS011;55809;46.618;10.764;2024-03-23T10:16:20;12.75;;;7.25;;
57247;SDS011;55809;46.618;10.764;2024-03-23T10:18:47;12.73;;;7.10;;
57247;SDS011;55809;46.618;10.764;2024-03-23T10:21:15;11.77;;;6.72;;
57247;SDS011;55809;46.618;10.764;2024-03-23T10:23:42;16.27;;;8.25;;
57247;SDS011;55809;46.618;10.764;2024-03-23T10:26:13;15.05;;;8.45;;
57247;SDS011;55809;46.618;10.764;2024-03-23T10:28:56;13.27;;;7.82;;
57247;SDS011;55809;46.618;10.764;2024-03-23T10:31:26;14.55;;;8.23;;
57247;SDS011;55809;46.618;10.764;2024-03-23T10:33:53;12.60;;;7.53;;
57247;SDS011;55809;46.618;10.764;2024-03-23T10:36:20;16.17;;;12.75;;
57247;SDS011;55809;46.618;10.764;2024-03-23T10:38:49;14.57;;;8.35;;
57247;SDS011;55809;46.618;10.764;2024-03-23T10:41:17;16.80;;;9.38;;
57247;SDS011;55809;46.618;10.764;2024-03-23T10:43:45;14.75;;;9.00;;
57247;SDS011;55809;46.618;10.764;2024-03-23T10:46:16;16.20;;;9.20;;
57247;SDS011;55809;46.618;10.764;2024-03-23T10:48:43;15.82;;;9.25;;
57247;SDS011;55809;46.618;10.764;2024-03-23T10:51:11;14.05;;;8.85;;
57247;SDS011;55809;46.618;10.764;2024-03-23T10:53:40;17.20;;;9.25;;
57247;SDS011;55809;46.618;10.764;2024-03-23T10:56:09;15.77;;;9.10;;
57247;SDS011;55809;46.618;10.764;2024-03-23T10:58:39;17.88;;;10.73;;
57247;SDS011;55809;46.618;10.764;2024-03-23T11:01:10;17.00;;;10.35;;
57247;SDS011;55809;46.618;10.764;2024-03-23T11:03:40;16.25;;;8.98;;
57247;SDS011;55809;46.618;10.764;2024-03-23T11:06:33;18.00;;;10.13;;
57247;SDS011;55809;46.618;10.764;2024-03-23T11:09:01;16.17;;;9.48;;
57247;SDS011;55809;46.618;10.764;2024-03-23T11:11:30;17.42;;;8.77;;
57247;SDS011;55809;46.618;10.764;2024-03-23T11:13:57;18.42;;;10.48;;
57247;SDS011;55809;46.618;10.764;2024-03-23T11:16:29;17.58;;;10.32;;
57247;SDS011;55809;46.618;10.764;2024-03-23T11:21:59;16.30;;;9.52;;
57247;SDS011;55809;46.618;10.764;2024-03-23T11:24:26;16.10;;;9.50;;
57247;SDS011;55809;46.618;10.764;2024-03-23T11:26:57;18.42;;;10.45;;
57247;SDS011;55809;46.618;10.764;2024-03-23T11:29:26;18.63;;;9.10;;
57247;SDS011;55809;46.618;10.764;2024-03-23T11:31:56;17.50;;;10.13;;
57247;SDS011;55809;46.618;10.764;2024-03-23T11:34:24;18.98;;;10.70;;
57247;SDS011;55809;46.618;10.764;2024-03-23T11:37:04;17.23;;;9.63;;
57247;SDS011;55809;46.618;10.764;2024-03-23T11:39:32;16.52;;;9.90;;
57247;SDS011;55809;46.618;10.764;2024-03-23T11:42:04;17.67;;;9.90;;
57247;SDS011;55809;46.618;10.764;2024-03-23T11:44:33;15.95;;;8.68;;
57247;SDS011;55809;46.618;10.764;2024-03-23T11:47:07;17.15;;;8.85;;
57247;SDS011;55809;46.618;10.764;2024-03-23T11:49:35;13.88;;;7.78;;
57247;SDS011;55809;46.618;10.764;2024-03-23T11:52:07;18.45;;;10.48;;
57247;SDS011;55809;46.618;10.764;2024-03-23T11:54:34;16.67;;;8.20;;
57247;SDS011;55809;46.618;10.764;2024-03-23T11:57:04;15.68;;;9.20;;
57247;SDS011;55809;46.618;10.764;2024-03-23T11:59:34;17.13;;;8.85;;
57247;SDS011;55809;46.618;10.764;2024-03-23T12:02:06;16.92;;;9.57;;
57247;SDS011;55809;46.618;10.764;2024-03-23T12:04:34;16.90;;;9.32;;
57247;SDS011;55809;46.618;10.764;2024-03-23T12:07:11;17.83;;;9.50;;
57247;SDS011;55809;46.618;10.764;2024-03-23T12:09:39;17.52;;;9.05;;
57247;SDS011;55809;46.618;10.764;2024-03-23T12:12:10;17.23;;;9.60;;
57247;SDS011;55809;46.618;10.764;2024-03-23T12:14:42;17.15;;;9.45;;
57247;SDS011;55809;46.618;10.764;2024-03-23T12:17:10;14.18;;;7.72;;
57247;SDS011;55809;46.618;10.764;2024-03-23T12:19:40;14.90;;;8.13;;
57247;SDS011;55809;46.618;10.764;2024-03-23T12:22:08;16.20;;;8.75;;
57247;SDS011;55809;46.618;10.764;2024-03-23T12:24:38;16.37;;;8.47;;
57247;SDS011;55809;46.618;10.764;2024-03-23T12:27:11;14.60;;;7.10;;
57247;SDS011;55809;46.618;10.764;2024-03-23T12:29:42;15.70;;;8.57;;
57247;SDS011;55809;46.618;10.764;2024-03-23T12:32:09;17.55;;;9.02;;
57247;SDS011;55809;46.618;10.764;2024-03-23T12:34:40;11.52;;;6.63;;
57247;SDS011;55809;46.618;10.764;2024-03-23T12:37:07;13.93;;;8.27;;
57247;SDS011;55809;46.618;10.764;2024-03-23T12:39:41;16.90;;;7.95;;
57247;SDS011;55809;46.618;10.764;2024-03-23T12:42:09;16.98;;;8.38;;
57247;SDS011;55809;46.618;10.764;2024-03-23T12:44:36;17.33;;;8.80;;
57247;SDS011;55809;46.618;10.764;2024-03-23T12:47:03;17.52;;;8.30;;
57247;SDS011;55809;46.618;10.764;2024-03-23T12:49:33;12.63;;;5.85;;
57247;SDS011;55809;46.618;10.764;2024-03-23T12:51:59;16.55;;;8.32;;
57247;SDS011;55809;46.618;10.764;2024-03-23T12:54:31;15.57;;;7.97;;
57247;SDS011;55809;46.618;10.764;2024-03-23T12:57:02;14.88;;;7.93;;
57247;SDS011;55809;46.618;10.764;2024-03-23T12:59:32;15.75;;;8.50;;
57247;SDS011;55809;46.618;10.764;2024-03-23T13:02:02;14.65;;;7.97;;
57247;SDS011;55809;46.618;10.764;2024-03-23T13:04:30;14.15;;;8.02;;
57247;SDS011;55809;46.618;10.764;2024-03-23T13:06:58;15.88;;;8.57;;
57247;SDS011;55809;46.618;10.764;2024-03-23T13:09:27;15.43;;;7.65;;
57247;SDS011;55809;46.618;10.764;2024-03-23T13:11:54;13.57;;;6.63;;
57247;SDS011;55809;46.618;10.764;2024-03-23T13:14:23;15.15;;;7.72;;
57247;SDS011;55809;46.618;10.764;2024-03-23T13:16:51;14.93;;;8.23;;
57247;SDS011;55809;46.618;10.764;2024-03-23T13:19:19;14.95;;;7.38;;
57247;SDS011;55809;46.618;10.764;2024-03-23T13:21:46;16.73;;;8.45;;
57247;SDS011;55809;46.618;10.764;2024-03-23T13:24:15;17.38;;;8.88;;
57247;SDS011;55809;46.618;10.764;2024-03-23T13:26:41;18.90;;;6.85;;
57247;SDS011;55809;46.618;10.764;2024-03-23T13:29:12;7.68;;;2.88;;
57247;SDS011;55809;46.618;10.764;2024-03-23T13:31:44;8.35;;;2.20;;
57247;SDS011;55809;46.618;10.764;2024-03-23T13:34:13;4.78;;;1.35;;
57247;SDS011;55809;46.618;10.764;2024-03-23T13:36:41;7.38;;;3.13;;
57247;SDS011;55809;46.618;10.764;2024-03-23T13:39:10;4.65;;;1.65;;
57247;SDS011;55809;46.618;10.764;2024-03-23T13:41:38;3.78;;;1.60;;
57247;SDS011;55809;46.618;10.764;2024-03-23T13:44:07;2.65;;;0.77;;
57247;SDS011;55809;46.618;10.764;2024-03-23T13:46:33;2.05;;;0.50;;
57247;SDS011;55809;46.618;10.764;2024-03-23T13:49:04;3.13;;;0.93;;
57247;SDS011;55809;46.618;10.764;2024-03-23T13:51:31;4.88;;;0.82;;
57247;SDS011;55809;46.618;10.764;2024-03-23T13:53:58;1.73;;;0.40;;
57247;SDS011;55809;46.618;10.764;2024-03-23T13:56:27;1.40;;;0.20;;
57247;SDS011;55809;46.618;10.764;2024-03-23T13:58:55;0.47;;;0.25;;
57247;SDS011;55809;46.618;10.764;2024-03-23T14:01:23;0.77;;;0.13;;
57247;SDS011;55809;46.618;10.764;2024-03-23T14:03:50;0.35;;;0.20;;
57247;SDS011;55809;46.618;10.764;2024-03-23T14:06:18;0.10;;;0.08;;
57247;SDS011;55809;46.618;10.764;2024-03-23T14:08:49;0.10;;;0.05;;
57247;SDS011;55809;46.618;10.764;2024-03-23T14:11:17;0.80;;;0.10;;
57247;SDS011;55809;46.618;10.764;2024-03-23T14:13:47;0.65;;;0.13;;
57247;SDS011;55809;46.618;10.764;2024-03-23T14:16:13;0.00;;;0.00;;
57247;SDS011;55809;46.618;10.764;2024-03-23T14:18:41;1.35;;;0.20;;
57247;SDS011;55809;46.618;10.764;2024-03-23T14:21:07;0.90;;;0.20;;
57247;SDS011;55809;46.618;10.764;2024-03-23T14:23:37;2.17;;;0.90;;
57247;SDS011;55809;46.618;10.764;2024-03-23T14:26:03;0.80;;;0.65;;
57247;SDS011;55809;46.618;10.764;2024-03-23T14:28:34;1.70;;;0.70;;
57247;SDS011;55809;46.618;10.764;2024-03-23T14:31:00;0.80;;;0.55;;
57247;SDS011;55809;46.618;10.764;2024-03-23T14:33:29;1.13;;;0.60;;
57247;SDS011;55809;46.618;10.764;2024-03-23T14:35:55;0.93;;;0.52;;
57247;SDS011;55809;46.618;10.764;2024-03-23T14:38:24;1.50;;;0.10;;
57247;SDS011;55809;46.618;10.764;2024-03-23T14:40:52;0.25;;;0.08;;
57247;SDS011;55809;46.618;10.764;2024-03-23T14:43:19;0.10;;;0.10;;
57247;SDS011;55809;46.618;10.764;2024-03-23T14:45:49;1.48;;;0.20;;
57247;SDS011;55809;46.618;10.764;2024-03-23T14:48:33;1.25;;;0.50;;
57247;SDS011;55809;46.618;10.764;2024-03-23T14:51:00;1.02;;;0.60;;
57247;SDS011;55809;46.618;10.764;2024-03-23T14:53:31;0.95;;;0.20;;
57247;SDS011;55809;46.618;10.764;2024-03-23T14:56:00;0.95;;;0.38;;
57247;SDS011;55809;46.618;10.764;2024-03-23T14:58:29;1.92;;;0.75;;
57247;SDS011;55809;46.618;10.764;2024-03-23T15:01:00;0.88;;;0.57;;
57247;SDS011;55809;46.618;10.764;2024-03-23T15:03:29;1.05;;;0.50;;
57247;SDS011;55809;46.618;10.764;2024-03-23T15:05:56;1.10;;;0.55;;
57247;SDS011;55809;46.618;10.764;2024-03-23T15:08:26;1.45;;;0.52;;
57247;SDS011;55809;46.618;10.764;2024-03-23T15:10:54;0.20;;;0.20;;
57247;SDS011;55809;46.618;10.764;2024-03-23T15:13:28;2.35;;;0.60;;
57247;SDS011;55809;46.618;10.764;2024-03-23T15:15:55;0.50;;;0.30;;
57247;SDS011;55809;46.618;10.764;2024-03-23T15:18:24;0.10;;;0.10;;
57247;SDS011;55809;46.618;10.764;2024-03-23T15:20:55;0.10;;;0.10;;
57247;SDS011;55809;46.618;10.764;2024-03-23T15:23:28;0.15;;;0.10;;
57247;SDS011;55809;46.618;10.764;2024-03-23T15:25:56;0.00;;;0.00;;
57247;SDS011;55809;46.618;10.764;2024-03-23T15:28:25;0.50;;;0.10;;
57247;SDS011;55809;46.618;10.764;2024-03-23T15:30:59;0.40;;;0.03;;
57247;SDS011;55809;46.618;10.764;2024-03-23T15:33:29;0.47;;;0.00;;